createdAt,value
2023-05-12T00:00:26.076Z,5.65
2023-05-12T00:00:57.756Z,5.25
2023-05-12T00:01:29.154Z,6.00
2023-05-12T00:02:00.562Z,5.45
2023-05-12T00:02:32.049Z,5.73
2023-05-12T00:03:03.562Z,5.85
2023-05-12T00:03:35.196Z,5.75
2023-05-12T00:04:07.175Z,5.50
2023-05-12T00:04:39.023Z,5.38
2023-05-12T00:05:10.496Z,5.50
2023-05-12T00:05:41.846Z,6.30
2023-05-12T00:06:13.244Z,5.22
2023-05-12T00:06:44.594Z,5.10
2023-05-12T00:07:15.970Z,5.43
2023-05-12T00:07:47.338Z,5.25
2023-05-12T00:08:18.694Z,5.55
2023-05-12T00:08:50.576Z,5.53
2023-05-12T00:09:21.927Z,5.40
2023-05-12T00:09:53.329Z,4.85
2023-05-12T00:10:26.835Z,5.20
2023-05-12T00:10:58.363Z,6.97
2023-05-12T00:11:30.260Z,6.47
2023-05-12T00:12:02.118Z,5.45
2023-05-12T00:12:33.495Z,5.28
2023-05-12T00:13:04.850Z,4.97
2023-05-12T00:13:36.284Z,5.80
2023-05-12T00:14:07.722Z,5.60
2023-05-12T00:14:39.110Z,4.78
2023-05-12T00:15:10.513Z,5.90
2023-05-12T00:15:41.885Z,6.18
2023-05-12T00:16:13.312Z,5.55
2023-05-12T00:16:44.759Z,5.55
2023-05-12T00:17:16.109Z,5.10
2023-05-12T00:17:47.492Z,5.78
2023-05-12T00:18:18.932Z,6.05
2023-05-12T00:18:50.389Z,5.80
2023-05-12T00:19:22.093Z,5.20
2023-05-12T00:19:53.465Z,6.78
2023-05-12T00:20:24.872Z,5.82
2023-05-12T00:20:56.452Z,5.68
2023-05-12T00:21:27.801Z,5.78
2023-05-12T00:21:59.580Z,5.60
2023-05-12T00:22:31.190Z,5.50
2023-05-12T00:23:02.577Z,5.97
2023-05-12T00:23:33.920Z,5.70
2023-05-12T00:24:05.494Z,5.82
2023-05-12T00:24:37.010Z,5.70
2023-05-12T00:25:08.736Z,5.53
2023-05-12T00:25:40.160Z,5.88
2023-05-12T00:26:11.578Z,5.25
2023-05-12T00:26:42.964Z,5.43
2023-05-12T00:27:14.285Z,5.55
2023-05-12T00:27:45.700Z,6.20
2023-05-12T00:28:17.803Z,5.53
2023-05-12T00:28:49.158Z,5.80
2023-05-12T00:29:20.512Z,5.73
2023-05-12T00:29:51.836Z,5.80
2023-05-12T00:30:23.289Z,4.85
2023-05-12T00:30:54.680Z,5.43
2023-05-12T00:31:26.108Z,5.75
2023-05-12T00:31:57.584Z,5.85
2023-05-12T00:32:29.653Z,6.43
2023-05-12T00:33:01.118Z,5.75
2023-05-12T00:33:33.203Z,5.82
2023-05-12T00:34:04.580Z,5.72
2023-05-12T00:34:35.941Z,5.90
2023-05-12T00:35:07.471Z,5.85
2023-05-12T00:35:38.852Z,5.15
2023-05-12T00:36:10.234Z,5.93
2023-05-12T00:36:41.620Z,5.45
2023-05-12T00:37:12.983Z,5.25
2023-05-12T00:37:44.416Z,6.20
2023-05-12T00:38:15.786Z,5.25
2023-05-12T00:38:47.144Z,5.30
2023-05-12T00:39:18.569Z,6.05
2023-05-12T00:39:49.909Z,5.38
2023-05-12T00:40:21.405Z,5.93
2023-05-12T00:40:53.047Z,6.28
2023-05-12T00:41:24.385Z,5.35
2023-05-12T00:41:58.756Z,4.85
2023-05-12T00:42:30.138Z,6.03
2023-05-12T00:43:01.536Z,5.80
2023-05-12T00:43:32.969Z,4.90
2023-05-12T00:44:04.400Z,5.80
2023-05-12T00:44:35.809Z,5.63
2023-05-12T00:45:07.515Z,5.93
2023-05-12T00:45:39.147Z,6.28
2023-05-12T00:46:10.540Z,5.93
2023-05-12T00:46:41.968Z,6.20
2023-05-12T00:47:13.346Z,5.60
2023-05-12T00:47:45.475Z,5.63
2023-05-12T00:48:16.882Z,5.43
2023-05-12T00:48:48.862Z,5.57
2023-05-12T00:49:20.301Z,5.00
2023-05-12T00:49:51.666Z,6.25
2023-05-12T00:50:23.219Z,5.50
2023-05-12T00:50:55.306Z,5.40
2023-05-12T00:51:27.303Z,6.05
2023-05-12T00:51:58.847Z,5.53
2023-05-12T00:52:30.220Z,5.53
2023-05-12T00:53:01.714Z,7.05
2023-05-12T00:53:47.719Z,6.13
2023-05-12T00:54:21.115Z,5.13
2023-05-12T00:54:52.530Z,5.10
2023-05-12T00:55:24.494Z,5.60
2023-05-12T00:55:55.851Z,6.43
2023-05-12T00:56:27.234Z,5.30
2023-05-12T00:56:58.627Z,5.65
2023-05-12T00:57:29.971Z,6.05
2023-05-12T00:58:01.336Z,5.07
2023-05-12T00:58:32.697Z,5.97
2023-05-12T00:59:04.071Z,5.63
2023-05-12T00:59:35.451Z,5.70
2023-05-12T01:00:07.100Z,5.50
2023-05-12T01:00:38.508Z,4.93
2023-05-12T01:01:10.031Z,5.43
2023-05-12T01:01:41.590Z,5.40
2023-05-12T01:02:13.120Z,5.85
2023-05-12T01:02:45.097Z,5.22
2023-05-12T01:03:16.830Z,5.63
2023-05-12T01:03:48.284Z,4.80
2023-05-12T01:04:19.688Z,5.13
2023-05-12T01:04:51.181Z,4.78
2023-05-12T01:05:22.819Z,5.07
2023-05-12T01:06:10.166Z,5.50
2023-05-12T01:06:59.688Z,5.03
2023-05-12T01:07:32.056Z,4.55
2023-05-12T01:08:03.509Z,5.63
2023-05-12T01:08:35.019Z,5.03
2023-05-12T01:09:06.462Z,4.57
2023-05-12T01:09:37.838Z,5.80
2023-05-12T01:10:19.406Z,5.38
2023-05-12T01:10:51.011Z,5.67
2023-05-12T01:11:22.363Z,4.75
2023-05-12T01:11:53.705Z,5.15
2023-05-12T01:12:25.665Z,4.43
2023-05-12T01:12:57.141Z,4.60
2023-05-12T01:13:28.577Z,5.30
2023-05-12T01:14:00.001Z,5.60
2023-05-12T01:14:31.361Z,4.53
2023-05-12T01:15:02.818Z,4.63
2023-05-12T01:15:34.322Z,4.65
2023-05-12T01:16:07.758Z,5.00
2023-05-12T01:16:41.179Z,5.45
2023-05-12T01:17:12.858Z,4.93
2023-05-12T01:17:52.625Z,4.32
2023-05-12T01:18:24.388Z,4.50
2023-05-12T01:18:56.147Z,4.75
2023-05-12T01:19:46.231Z,5.10
2023-05-12T01:20:18.732Z,4.78
2023-05-12T01:20:51.147Z,5.53
2023-05-12T01:21:22.521Z,4.50
2023-05-12T01:21:53.952Z,4.80
2023-05-12T01:22:25.969Z,5.40
2023-05-12T01:22:58.228Z,5.78
2023-05-12T01:23:33.758Z,5.07
2023-05-12T01:24:07.360Z,5.07
2023-05-12T01:24:42.740Z,4.70
2023-05-12T01:25:14.816Z,4.35
2023-05-12T01:25:46.562Z,4.75
2023-05-12T01:26:18.264Z,6.03
2023-05-12T01:26:49.645Z,4.78
2023-05-12T01:27:21.964Z,5.22
2023-05-12T01:27:53.802Z,5.00
2023-05-12T01:28:25.247Z,5.15
2023-05-12T01:28:56.675Z,4.65
2023-05-12T01:29:28.800Z,5.53
2023-05-12T01:30:04.297Z,4.10
2023-05-12T01:30:36.311Z,4.60
2023-05-12T01:31:08.361Z,5.97
2023-05-12T01:31:40.198Z,5.30
2023-05-12T01:32:12.181Z,4.87
2023-05-12T01:32:43.925Z,5.30
2023-05-12T01:33:15.322Z,5.10
2023-05-12T01:33:46.899Z,5.82
2023-05-12T01:34:18.342Z,4.38
2023-05-12T01:34:49.733Z,4.82
2023-05-12T01:35:21.101Z,5.10
2023-05-12T01:35:52.447Z,5.07
2023-05-12T01:36:23.808Z,5.90
2023-05-12T01:36:55.285Z,5.18
2023-05-12T01:37:26.660Z,4.90
2023-05-12T01:37:58.045Z,4.80
2023-05-12T01:38:29.478Z,5.30
2023-05-12T01:39:00.860Z,6.03
2023-05-12T01:39:32.205Z,5.07
2023-05-12T01:40:03.769Z,4.95
2023-05-12T01:40:35.136Z,5.70
2023-05-12T01:41:06.512Z,4.95
2023-05-12T01:41:38.097Z,4.75
2023-05-12T01:42:09.421Z,5.70
2023-05-12T01:42:41.851Z,4.20
2023-05-12T01:43:13.260Z,4.88
2023-05-12T01:43:44.613Z,5.13
2023-05-12T01:44:15.953Z,4.68
2023-05-12T01:44:47.332Z,4.88
2023-05-12T01:45:18.884Z,5.35
2023-05-12T01:45:50.250Z,5.10
2023-05-12T01:46:21.625Z,4.82
2023-05-12T01:46:53.035Z,4.72
2023-05-12T01:47:24.410Z,4.75
2023-05-12T01:47:55.831Z,5.32
2023-05-12T01:48:27.224Z,5.28
2023-05-12T01:48:58.621Z,4.75
2023-05-12T01:49:29.966Z,5.10
2023-05-12T01:50:01.360Z,5.28
2023-05-12T01:50:32.853Z,4.78
2023-05-12T01:51:06.921Z,5.63
2023-05-12T01:51:38.312Z,5.07
2023-05-12T01:52:09.656Z,4.88
2023-05-12T01:52:41.054Z,4.97
2023-05-12T01:53:12.443Z,5.45
2023-05-12T01:53:43.838Z,5.50
2023-05-12T01:54:15.188Z,5.47
2023-05-12T01:54:46.562Z,5.30
2023-05-12T01:55:17.936Z,5.47
2023-05-12T01:55:49.280Z,5.57
2023-05-12T01:56:20.603Z,5.28
2023-05-12T01:56:51.967Z,5.30
2023-05-12T01:57:23.319Z,5.13
2023-05-12T01:57:54.652Z,5.93
2023-05-12T01:58:26.009Z,6.05
2023-05-12T01:58:57.484Z,5.38
2023-05-12T01:59:28.945Z,5.68
2023-05-12T02:00:00.325Z,5.55
2023-05-12T02:00:31.709Z,6.22
2023-05-12T02:01:03.358Z,6.38
2023-05-12T02:01:34.773Z,5.70
2023-05-12T02:02:06.186Z,5.38
2023-05-12T02:02:37.707Z,5.95
2023-05-12T02:03:09.537Z,5.32
2023-05-12T02:03:40.960Z,5.68
2023-05-12T02:04:12.459Z,6.13
2023-05-12T02:04:43.937Z,5.60
2023-05-12T02:05:15.349Z,5.40
2023-05-12T02:05:46.694Z,6.25
2023-05-12T02:06:18.113Z,5.25
2023-05-12T02:06:49.473Z,5.95
2023-05-12T02:07:20.827Z,5.63
2023-05-12T02:07:52.197Z,4.57
2023-05-12T02:08:23.557Z,5.57
2023-05-12T02:08:54.907Z,5.97
2023-05-12T02:09:26.317Z,5.82
2023-05-12T02:09:57.675Z,5.60
2023-05-12T02:10:29.058Z,5.70
2023-05-12T02:11:06.637Z,5.70
2023-05-12T02:11:38.015Z,5.90
2023-05-12T02:12:09.379Z,5.43
2023-05-12T02:12:40.889Z,5.20
2023-05-12T02:13:12.265Z,6.13
2023-05-12T02:13:43.612Z,6.13
2023-05-12T02:14:15.085Z,5.28
2023-05-12T02:14:46.423Z,6.00
2023-05-12T02:15:17.796Z,5.40
2023-05-12T02:15:49.162Z,5.37
2023-05-12T02:16:20.565Z,5.85
2023-05-12T02:16:52.053Z,6.63
2023-05-12T02:17:23.463Z,5.40
2023-05-12T02:17:54.886Z,5.03
2023-05-12T02:18:26.461Z,6.10
2023-05-12T02:18:57.839Z,5.72
2023-05-12T02:19:29.274Z,5.70
2023-05-12T02:20:00.608Z,5.55
2023-05-12T02:20:31.990Z,5.03
2023-05-12T02:21:03.442Z,6.00
2023-05-12T02:21:34.809Z,6.00
2023-05-12T02:22:06.178Z,5.88
2023-05-12T02:22:37.523Z,5.50
2023-05-12T02:23:08.864Z,6.28
2023-05-12T02:23:40.218Z,6.30
2023-05-12T02:24:12.936Z,6.10
2023-05-12T02:24:46.101Z,6.05
2023-05-12T02:25:17.518Z,6.15
2023-05-12T02:25:48.896Z,5.85
2023-05-12T02:26:20.246Z,5.85
2023-05-12T02:26:51.628Z,6.00
2023-05-12T02:27:23.049Z,5.82
2023-05-12T02:27:54.417Z,5.93
2023-05-12T02:28:25.779Z,5.93
2023-05-12T02:28:57.329Z,5.90
2023-05-12T02:29:28.696Z,5.60
2023-05-12T02:30:00.194Z,6.07
2023-05-12T02:30:31.603Z,5.63
2023-05-12T02:31:02.997Z,5.88
2023-05-12T02:31:34.347Z,5.53
2023-05-12T02:32:05.897Z,5.95
2023-05-12T02:32:37.729Z,6.25
2023-05-12T02:33:09.137Z,5.40
2023-05-12T02:33:40.550Z,6.28
2023-05-12T02:34:11.915Z,5.85
2023-05-12T02:34:43.332Z,5.90
2023-05-12T02:35:14.697Z,6.75
2023-05-12T02:35:46.196Z,5.95
2023-05-12T02:36:17.587Z,6.93
2023-05-12T02:36:48.927Z,5.95
2023-05-12T02:37:20.289Z,5.93
2023-05-12T02:37:51.685Z,6.28
2023-05-12T02:38:23.057Z,6.38
2023-05-12T02:38:54.450Z,6.07
2023-05-12T02:39:25.822Z,5.90
2023-05-12T02:39:57.214Z,5.82
2023-05-12T02:40:28.574Z,5.75
2023-05-12T02:40:59.941Z,5.65
2023-05-12T02:41:31.290Z,6.05
2023-05-12T02:42:05.930Z,6.35
2023-05-12T02:42:37.289Z,6.30
2023-05-12T02:43:08.733Z,6.93
2023-05-12T02:43:40.105Z,6.22
2023-05-12T02:44:11.494Z,6.00
2023-05-12T02:44:42.845Z,5.87
2023-05-12T02:45:14.235Z,6.38
2023-05-12T02:45:45.632Z,5.57
2023-05-12T02:46:17.107Z,7.03
2023-05-12T02:46:48.499Z,7.43
2023-05-12T02:47:19.917Z,5.70
2023-05-12T02:47:51.356Z,5.90
2023-05-12T02:48:22.936Z,6.20
2023-05-12T02:48:54.354Z,6.53
2023-05-12T02:49:25.712Z,6.05
2023-05-12T02:49:57.141Z,6.85
2023-05-12T02:50:28.553Z,6.43
2023-05-12T02:50:59.982Z,6.43
2023-05-12T02:51:31.389Z,6.57
2023-05-12T02:52:02.781Z,6.18
2023-05-12T02:52:34.164Z,6.50
2023-05-12T02:53:05.548Z,6.15
2023-05-12T02:53:36.999Z,6.57
2023-05-12T02:54:08.374Z,6.70
2023-05-12T02:54:39.755Z,7.20
2023-05-12T02:55:11.164Z,6.45
2023-05-12T02:55:42.576Z,6.47
2023-05-12T02:56:13.989Z,6.00
2023-05-12T02:56:45.411Z,6.10
2023-05-12T02:57:16.760Z,6.38
2023-05-12T02:57:48.151Z,6.03
2023-05-12T02:58:19.522Z,5.95
2023-05-12T02:58:50.937Z,7.20
2023-05-12T02:59:22.292Z,7.30
2023-05-12T02:59:53.682Z,6.43
2023-05-12T03:00:25.030Z,6.65
2023-05-12T03:01:06.712Z,6.40
2023-05-12T03:01:41.126Z,6.57
2023-05-12T03:02:12.671Z,6.93
2023-05-12T03:02:44.224Z,6.43
2023-05-12T03:03:15.836Z,7.07
2023-05-12T03:03:47.498Z,7.32
2023-05-12T03:04:18.997Z,7.47
2023-05-12T03:04:50.350Z,7.47
2023-05-12T03:05:21.728Z,6.50
2023-05-12T03:05:53.142Z,6.30
2023-05-12T03:06:25.296Z,7.35
2023-05-12T03:06:57.055Z,7.75
2023-05-12T03:07:28.458Z,6.97
2023-05-12T03:07:59.890Z,6.68
2023-05-12T03:08:31.477Z,7.78
2023-05-12T03:09:02.810Z,7.40
2023-05-12T03:09:34.234Z,6.88
2023-05-12T03:10:05.943Z,7.47
2023-05-12T03:10:37.352Z,7.20
2023-05-12T03:11:08.763Z,7.53
2023-05-12T03:11:40.210Z,8.63
2023-05-12T03:12:11.590Z,8.88
2023-05-12T03:12:42.977Z,7.93
2023-05-12T03:13:14.341Z,7.82
2023-05-12T03:13:45.712Z,8.13
2023-05-12T03:14:17.095Z,8.30
2023-05-12T03:14:48.458Z,8.40
2023-05-12T03:15:19.862Z,8.15
2023-05-12T03:15:51.201Z,8.50
2023-05-12T03:16:22.684Z,8.93
2023-05-12T03:16:54.117Z,8.10
2023-05-12T03:17:25.590Z,8.70
2023-05-12T03:17:57.008Z,8.68
2023-05-12T03:18:28.442Z,7.88
2023-05-12T03:18:59.889Z,9.10
2023-05-12T03:19:31.280Z,8.95
2023-05-12T03:20:03.051Z,8.85
2023-05-12T03:20:34.423Z,7.85
2023-05-12T03:21:05.857Z,8.68
2023-05-12T03:21:37.218Z,8.73
2023-05-12T03:22:08.686Z,8.25
2023-05-12T03:22:40.141Z,8.52
2023-05-12T03:23:11.913Z,7.82
2023-05-12T03:23:43.279Z,8.38
2023-05-12T03:24:14.634Z,9.15
2023-05-12T03:24:46.042Z,9.03
2023-05-12T03:25:17.461Z,8.30
2023-05-12T03:25:48.790Z,8.40
2023-05-12T03:26:20.130Z,8.18
2023-05-12T03:26:51.525Z,8.65
2023-05-12T03:27:22.969Z,8.88
2023-05-12T03:27:54.400Z,8.30
2023-05-12T03:28:25.755Z,8.88
2023-05-12T03:28:57.105Z,8.07
2023-05-12T03:29:28.547Z,8.27
2023-05-12T03:30:00.001Z,8.73
2023-05-12T03:30:31.399Z,8.18
2023-05-12T03:31:02.782Z,8.05
2023-05-12T03:31:34.205Z,8.55
2023-05-12T03:32:05.892Z,8.45
2023-05-12T03:32:37.354Z,9.45
2023-05-12T03:33:08.763Z,8.25
2023-05-12T03:33:40.144Z,9.10
2023-05-12T03:34:11.536Z,9.00
2023-05-12T03:34:42.987Z,9.13
2023-05-12T03:35:14.328Z,9.10
2023-05-12T03:35:45.720Z,9.65
2023-05-12T03:36:17.064Z,8.90
2023-05-12T03:36:48.531Z,9.02
2023-05-12T03:37:19.988Z,9.95
2023-05-12T03:37:51.372Z,7.95
2023-05-12T03:38:22.750Z,9.00
2023-05-12T03:38:54.105Z,8.20
2023-05-12T03:39:25.477Z,9.23
2023-05-12T03:39:56.874Z,8.57
2023-05-12T03:40:28.237Z,10.07
2023-05-12T03:41:08.716Z,8.73
2023-05-12T03:41:40.141Z,9.55
2023-05-12T03:42:11.523Z,10.05
2023-05-12T03:42:42.876Z,9.52
2023-05-12T03:43:14.253Z,9.57
2023-05-12T03:43:45.578Z,9.43
2023-05-12T03:44:16.950Z,9.88
2023-05-12T03:44:48.289Z,10.60
2023-05-12T03:45:19.690Z,9.43
2023-05-12T03:45:51.089Z,9.30
2023-05-12T03:46:22.515Z,10.45
2023-05-12T03:46:54.025Z,9.77
2023-05-12T03:47:27.689Z,9.77
2023-05-12T03:48:00.453Z,9.45
2023-05-12T03:48:31.864Z,8.50
2023-05-12T03:49:03.334Z,9.32
2023-05-12T03:49:34.708Z,10.00
2023-05-12T03:50:06.703Z,9.80
2023-05-12T03:50:38.075Z,10.48
2023-05-12T03:51:09.422Z,9.77
2023-05-12T03:51:40.767Z,10.70
2023-05-12T03:52:12.131Z,10.60
2023-05-12T03:52:43.455Z,9.93
2023-05-12T03:53:14.993Z,10.25
2023-05-12T03:53:46.406Z,10.45
2023-05-12T03:54:17.760Z,9.77
2023-05-12T03:54:49.094Z,10.23
2023-05-12T03:55:20.451Z,9.15
2023-05-12T03:55:51.816Z,9.27
2023-05-12T03:56:23.180Z,10.20
2023-05-12T03:56:54.553Z,9.27
2023-05-12T03:57:25.948Z,9.95
2023-05-12T03:57:57.294Z,10.05
2023-05-12T03:58:28.709Z,10.45
2023-05-12T03:59:00.062Z,11.00
2023-05-12T03:59:31.562Z,10.18
2023-05-12T04:00:03.823Z,10.18
2023-05-12T04:00:35.280Z,9.75
2023-05-12T04:01:06.661Z,8.50
2023-05-12T04:01:38.229Z,10.57
2023-05-12T04:02:09.633Z,10.63
2023-05-12T04:02:40.966Z,9.50
2023-05-12T04:03:12.469Z,10.85
2023-05-12T04:03:44.005Z,9.82
2023-05-12T04:04:15.640Z,10.02
2023-05-12T04:04:47.081Z,9.63
2023-05-12T04:05:18.422Z,9.90
2023-05-12T04:05:49.769Z,9.98
2023-05-12T04:06:21.250Z,11.40
2023-05-12T04:06:52.620Z,9.88
2023-05-12T04:07:24.008Z,11.30
2023-05-12T04:07:55.380Z,9.77
2023-05-12T04:08:26.990Z,9.50
2023-05-12T04:08:58.816Z,10.00
2023-05-12T04:09:33.354Z,9.95
2023-05-12T04:10:05.004Z,10.10
2023-05-12T04:10:39.548Z,10.32
2023-05-12T04:11:10.932Z,9.88
2023-05-12T04:11:42.721Z,9.43
2023-05-12T04:12:14.131Z,10.13
2023-05-12T04:12:45.565Z,9.57
2023-05-12T04:13:17.283Z,10.38
2023-05-12T04:13:48.635Z,8.90
2023-05-12T04:14:24.617Z,10.73
2023-05-12T04:15:03.523Z,10.43
2023-05-12T04:15:35.237Z,10.00
2023-05-12T04:16:07.138Z,10.55
2023-05-12T04:16:38.556Z,10.33
2023-05-12T04:17:10.104Z,11.35
2023-05-12T04:17:41.691Z,10.43
2023-05-12T04:18:13.049Z,10.10
2023-05-12T04:18:44.430Z,10.82
2023-05-12T04:19:15.807Z,11.52
2023-05-12T04:19:47.153Z,10.50
2023-05-12T04:20:18.637Z,11.15
2023-05-12T04:20:50.205Z,8.90
2023-05-12T04:21:21.539Z,9.57
2023-05-12T04:21:52.919Z,9.32
2023-05-12T04:22:25.732Z,8.60
2023-05-12T04:22:57.315Z,9.05
2023-05-12T04:23:29.250Z,8.70
2023-05-12T04:24:00.680Z,9.07
2023-05-12T04:24:32.077Z,10.15
2023-05-12T04:25:03.529Z,8.80
2023-05-12T04:25:38.459Z,9.57
2023-05-12T04:26:09.842Z,8.13
2023-05-12T04:26:41.193Z,8.45
2023-05-12T04:27:12.505Z,9.52
2023-05-12T04:27:43.916Z,8.68
2023-05-12T04:28:15.309Z,9.10
2023-05-12T04:28:46.708Z,9.70
2023-05-12T04:29:18.045Z,9.30
2023-05-12T04:29:49.408Z,9.30
2023-05-12T04:30:21.116Z,8.23
2023-05-12T04:30:52.645Z,8.32
2023-05-12T04:31:24.058Z,8.63
2023-05-12T04:31:55.453Z,8.87
2023-05-12T04:32:26.848Z,9.10
2023-05-12T04:32:58.291Z,9.48
2023-05-12T04:33:29.779Z,10.73
2023-05-12T04:34:01.159Z,8.23
2023-05-12T04:34:32.530Z,8.38
2023-05-12T04:35:03.985Z,8.43
2023-05-12T04:35:35.364Z,8.18
2023-05-12T04:36:06.889Z,8.43
2023-05-12T04:36:38.277Z,9.07
2023-05-12T04:37:09.659Z,8.68
2023-05-12T04:37:41.180Z,8.25
2023-05-12T04:38:12.792Z,9.15
2023-05-12T04:38:44.171Z,7.55
2023-05-12T04:39:15.573Z,8.60
2023-05-12T04:39:46.986Z,9.07
2023-05-12T04:40:18.565Z,8.05
2023-05-12T04:40:50.243Z,8.75
2023-05-12T04:41:21.743Z,8.82
2023-05-12T04:41:53.082Z,9.05
2023-05-12T04:42:24.485Z,8.40
2023-05-12T04:42:55.890Z,7.85
2023-05-12T04:44:02.027Z,8.32
2023-05-12T04:44:33.393Z,7.63
2023-05-12T04:45:04.980Z,8.65
2023-05-12T04:45:36.361Z,8.45
2023-05-12T04:46:07.892Z,7.32
2023-05-12T04:46:39.388Z,8.18
2023-05-12T04:47:10.797Z,7.15
2023-05-12T04:47:42.221Z,8.52
2023-05-12T04:48:13.661Z,8.27
2023-05-12T04:48:45.000Z,8.03
2023-05-12T04:49:16.428Z,8.40
2023-05-12T04:49:47.805Z,8.00
2023-05-12T04:50:19.178Z,8.25
2023-05-12T04:50:50.520Z,8.98
2023-05-12T04:51:21.886Z,7.40
2023-05-12T04:51:53.290Z,7.87
2023-05-12T04:52:24.874Z,8.40
2023-05-12T04:52:56.356Z,8.93
2023-05-12T04:53:27.870Z,8.27
2023-05-12T04:53:59.236Z,8.07
2023-05-12T04:54:30.637Z,9.07
2023-05-12T04:55:01.997Z,9.27
2023-05-12T04:55:33.372Z,7.47
2023-05-12T04:56:04.826Z,8.07
2023-05-12T04:56:36.344Z,8.38
2023-05-12T04:57:07.750Z,9.30
2023-05-12T04:57:39.194Z,8.23
2023-05-12T04:58:10.585Z,9.23
2023-05-12T04:58:41.930Z,9.10
2023-05-12T04:59:14.115Z,8.52
2023-05-12T04:59:45.484Z,7.80
2023-05-12T05:00:16.913Z,8.38
2023-05-12T05:00:48.281Z,7.95
2023-05-12T05:01:19.773Z,8.13
2023-05-12T05:01:51.296Z,7.60
2023-05-12T05:02:22.793Z,8.90
2023-05-12T05:02:54.350Z,7.95
2023-05-12T05:03:26.027Z,8.95
2023-05-12T05:03:57.575Z,7.68
2023-05-12T05:04:29.014Z,8.60
2023-05-12T05:05:00.428Z,9.15
2023-05-12T05:05:31.782Z,7.40
2023-05-12T05:06:03.162Z,8.55
2023-05-12T05:06:34.575Z,7.53
2023-05-12T05:07:05.944Z,8.57
2023-05-12T05:07:37.389Z,8.43
2023-05-12T05:08:08.778Z,7.68
2023-05-12T05:08:40.137Z,7.90
2023-05-12T05:09:11.500Z,7.78
2023-05-12T05:09:42.858Z,8.68
2023-05-12T05:10:14.355Z,9.40
2023-05-12T05:10:45.691Z,9.10
2023-05-12T05:11:17.109Z,7.95
2023-05-12T05:11:48.442Z,7.43
2023-05-12T05:12:20.053Z,8.25
2023-05-12T05:12:51.390Z,10.27
2023-05-12T05:13:22.730Z,10.27
2023-05-12T05:13:54.127Z,8.50
2023-05-12T05:14:25.494Z,9.63
2023-05-12T05:14:56.869Z,9.00
2023-05-12T05:15:28.284Z,9.02
2023-05-12T05:15:59.722Z,8.95
2023-05-12T05:16:31.175Z,8.02
2023-05-12T05:17:02.627Z,7.97
2023-05-12T05:17:34.083Z,9.52
2023-05-12T05:18:05.519Z,7.93
2023-05-12T05:18:36.988Z,8.05
2023-05-12T05:19:19.982Z,8.32
2023-05-12T05:19:59.276Z,9.35
2023-05-12T05:20:32.405Z,8.35
2023-05-12T05:21:04.065Z,8.18
2023-05-12T05:21:35.505Z,7.60
2023-05-12T05:22:06.866Z,9.15
2023-05-12T05:22:38.272Z,7.95
2023-05-12T05:23:09.641Z,8.57
2023-05-12T05:23:41.455Z,8.02
2023-05-12T05:24:12.843Z,7.93
2023-05-12T05:24:44.176Z,8.10
2023-05-12T05:25:15.587Z,7.85
2023-05-12T05:25:47.019Z,7.20
2023-05-12T05:26:18.529Z,6.68
2023-05-12T05:26:49.913Z,7.30
2023-05-12T05:27:23.878Z,6.88
2023-05-12T05:27:55.420Z,6.47
2023-05-12T05:28:26.815Z,6.63
2023-05-12T05:28:58.207Z,6.13
2023-05-12T05:29:29.647Z,6.80
2023-05-12T05:30:00.998Z,7.25
2023-05-12T05:30:32.396Z,6.65
2023-05-12T05:31:03.875Z,5.60
2023-05-12T05:31:35.325Z,5.97
2023-05-12T05:32:06.946Z,6.07
2023-05-12T05:32:39.000Z,5.85
2023-05-12T05:33:10.400Z,5.93
2023-05-12T05:33:41.832Z,6.00
2023-05-12T05:34:13.288Z,5.85
2023-05-12T05:34:46.968Z,7.95
2023-05-12T05:35:18.557Z,6.88
2023-05-12T05:35:50.232Z,6.43
2023-05-12T05:36:26.631Z,6.60
2023-05-12T05:36:58.050Z,6.37
2023-05-12T05:37:29.619Z,5.13
2023-05-12T05:38:01.015Z,6.07
2023-05-12T05:38:32.358Z,5.22
2023-05-12T05:39:03.743Z,5.40
2023-05-12T05:39:35.206Z,5.03
2023-05-12T05:40:06.958Z,5.60
2023-05-12T05:40:51.520Z,4.85
2023-05-12T05:41:24.931Z,5.30
2023-05-12T05:41:56.701Z,4.55
2023-05-12T05:42:28.089Z,5.60
2023-05-12T05:42:59.422Z,6.85
2023-05-12T05:43:30.768Z,5.35
2023-05-12T05:44:02.136Z,5.05
2023-05-12T05:44:33.492Z,4.95
2023-05-12T05:45:05.067Z,5.97
2023-05-12T05:45:36.434Z,4.63
2023-05-12T05:46:07.886Z,5.15
2023-05-12T05:46:39.307Z,5.07
2023-05-12T05:47:10.925Z,4.95
2023-05-12T05:47:42.546Z,4.95
2023-05-12T05:48:13.970Z,4.93
2023-05-12T05:48:45.341Z,4.47
2023-05-12T05:49:16.832Z,4.35
2023-05-12T05:49:48.160Z,4.57
2023-05-12T05:50:19.530Z,5.90
2023-05-12T05:50:51.286Z,6.28
2023-05-12T05:51:22.687Z,5.20
2023-05-12T05:51:54.093Z,4.72
2023-05-12T05:52:25.467Z,4.50
2023-05-12T05:52:56.836Z,4.03
2023-05-12T05:53:28.282Z,4.40
2023-05-12T05:53:59.729Z,4.80
2023-05-12T05:54:31.095Z,4.22
2023-05-12T05:55:02.507Z,5.32
2023-05-12T05:55:33.885Z,4.55
2023-05-12T05:56:05.463Z,4.45
2023-05-12T05:56:36.832Z,4.13
2023-05-12T05:57:08.209Z,3.40
2023-05-12T05:57:39.592Z,4.53
2023-05-12T05:58:11.109Z,4.00
2023-05-12T05:58:42.529Z,3.83
2023-05-12T05:59:13.879Z,3.95
2023-05-12T05:59:45.244Z,4.50
2023-05-12T06:00:16.714Z,3.78
2023-05-12T06:00:48.133Z,3.80
2023-05-12T06:01:19.502Z,3.10
2023-05-12T06:01:50.907Z,3.20
2023-05-12T06:02:22.404Z,3.00
2023-05-12T06:02:53.994Z,4.22
2023-05-12T06:03:25.563Z,3.70
2023-05-12T06:03:57.061Z,3.22
2023-05-12T06:04:28.740Z,3.85
2023-05-12T06:05:00.273Z,3.35
2023-05-12T06:05:31.640Z,3.38
2023-05-12T06:06:03.071Z,4.20
2023-05-12T06:06:34.425Z,3.05
2023-05-12T06:07:05.805Z,3.10
2023-05-12T06:07:37.159Z,4.03
2023-05-12T06:08:08.727Z,4.22
2023-05-12T06:08:40.101Z,3.40
2023-05-12T06:09:11.443Z,3.53
2023-05-12T06:09:42.809Z,3.70
2023-05-12T06:10:14.195Z,3.70
2023-05-12T06:10:45.563Z,3.80
2023-05-12T06:11:17.904Z,4.00
2023-05-12T06:11:49.470Z,4.90
2023-05-12T06:12:20.933Z,3.70
2023-05-12T06:12:52.348Z,4.22
2023-05-12T06:13:23.636Z,3.35
2023-05-12T06:13:55.004Z,4.13
2023-05-12T06:14:26.376Z,3.88
2023-05-12T06:14:57.758Z,3.33
2023-05-12T06:15:29.111Z,3.90
2023-05-12T06:16:00.470Z,4.13
2023-05-12T06:16:31.870Z,3.80
2023-05-12T06:17:03.472Z,3.80
2023-05-12T06:17:34.950Z,3.97
2023-05-12T06:18:06.406Z,4.05
2023-05-12T06:18:38.195Z,4.70
2023-05-12T06:19:09.845Z,3.47
2023-05-12T06:19:41.225Z,3.45
2023-05-12T06:20:12.624Z,4.35
2023-05-12T06:20:44.028Z,4.13
2023-05-12T06:21:15.446Z,3.30
2023-05-12T06:21:46.929Z,3.95
2023-05-12T06:22:18.352Z,3.92
2023-05-12T06:22:49.712Z,4.40
2023-05-12T06:23:21.096Z,3.53
2023-05-12T06:23:52.491Z,3.65
2023-05-12T06:24:23.846Z,4.00
2023-05-12T06:24:55.229Z,3.95
2023-05-12T06:25:26.656Z,4.28
2023-05-12T06:25:58.018Z,3.47
2023-05-12T06:26:29.383Z,4.68
2023-05-12T06:27:00.765Z,3.20
2023-05-12T06:27:32.142Z,3.33
2023-05-12T06:28:03.488Z,3.88
2023-05-12T06:28:34.973Z,4.43
2023-05-12T06:29:06.878Z,3.22
2023-05-12T06:29:38.245Z,3.40
2023-05-12T06:30:09.757Z,3.47
2023-05-12T06:30:41.133Z,4.53
2023-05-12T06:31:12.507Z,4.20
2023-05-12T06:31:43.953Z,3.83
2023-05-12T06:32:15.428Z,3.15
2023-05-12T06:32:47.070Z,3.25
2023-05-12T06:33:18.433Z,3.63
2023-05-12T06:33:49.836Z,2.83
2023-05-12T06:34:21.245Z,2.90
2023-05-12T06:34:52.613Z,3.75
2023-05-12T06:35:23.982Z,3.42
2023-05-12T06:35:55.424Z,3.53
2023-05-12T06:36:27.338Z,3.25
2023-05-12T06:36:58.746Z,2.25
2023-05-12T06:37:30.071Z,2.70
2023-05-12T06:38:01.468Z,2.35
2023-05-12T06:38:32.805Z,2.17
2023-05-12T06:39:04.254Z,2.58
2023-05-12T06:39:35.653Z,2.63
2023-05-12T06:40:08.585Z,2.35
2023-05-12T06:40:39.944Z,2.78
2023-05-12T06:41:11.291Z,2.75
2023-05-12T06:41:42.646Z,2.78
2023-05-12T06:42:14.057Z,3.22
2023-05-12T06:42:45.450Z,2.90
2023-05-12T06:43:16.859Z,2.80
2023-05-12T06:43:48.205Z,2.58
2023-05-12T06:44:19.862Z,2.30
2023-05-12T06:44:51.235Z,2.13
2023-05-12T06:45:22.736Z,2.83
2023-05-12T06:45:54.244Z,2.92
2023-05-12T06:46:25.700Z,2.38
2023-05-12T06:46:57.189Z,2.50
2023-05-12T06:47:28.648Z,3.03
2023-05-12T06:48:00.250Z,3.22
2023-05-12T06:48:31.692Z,3.03
2023-05-12T06:49:03.113Z,2.90
2023-05-12T06:49:34.519Z,2.55
2023-05-12T06:50:06.831Z,3.47
2023-05-12T06:50:38.200Z,3.28
2023-05-12T06:51:09.560Z,3.22
2023-05-12T06:51:48.083Z,3.35
2023-05-12T06:52:19.419Z,3.15
2023-05-12T06:52:50.792Z,3.10
2023-05-12T06:53:23.987Z,3.03
2023-05-12T06:53:56.838Z,2.90
2023-05-12T06:54:28.213Z,2.88
2023-05-12T06:54:59.570Z,2.90
2023-05-12T06:55:30.981Z,3.78
2023-05-12T06:56:02.353Z,2.67
2023-05-12T06:56:33.747Z,3.73
2023-05-12T06:57:05.207Z,2.90
2023-05-12T06:57:36.543Z,2.95
2023-05-12T06:58:07.949Z,3.72
2023-05-12T06:58:39.341Z,2.80
2023-05-12T06:59:10.691Z,2.93
2023-05-12T06:59:42.155Z,3.28
2023-05-12T07:00:13.902Z,3.47
2023-05-12T07:00:45.269Z,3.30
2023-05-12T07:01:16.724Z,3.17
2023-05-12T07:01:48.143Z,3.13
2023-05-12T07:02:19.521Z,3.17
2023-05-12T07:02:51.279Z,3.30